sensor_id;sensor_type;location;lat;lon;timestamp;P1;durP1;ratioP1;P2;durP2;ratioP2
11037;SDS011;5572;49.540;11.932;2022-10-13T00:02:25;9.50;;;6.47;;
11037;SDS011;5572;49.540;11.932;2022-10-13T00:04:51;8.43;;;4.30;;
11037;SDS011;5572;49.540;11.932;2022-10-13T00:07:17;8.17;;;5.17;;
11037;SDS011;5572;49.540;11.932;2022-10-13T00:09:44;7.07;;;5.43;;
11037;SDS011;5572;49.540;11.932;2022-10-13T00:12:11;17.43;;;5.90;;
11037;SDS011;5572;49.540;11.932;2022-10-13T00:14:38;6.57;;;5.10;;
11037;SDS011;5572;49.540;11.932;2022-10-13T00:17:04;5.97;;;4.67;;
11037;SDS011;5572;49.540;11.932;2022-10-13T00:19:31;6.77;;;4.93;;
11037;SDS011;5572;49.540;11.932;2022-10-13T00:21:57;6.80;;;5.20;;
11037;SDS011;5572;49.540;11.932;2022-10-13T00:24:24;6.20;;;4.53;;
11037;SDS011;5572;49.540;11.932;2022-10-13T00:26:50;5.80;;;4.40;;
11037;SDS011;5572;49.540;11.932;2022-10-13T00:29:18;7.53;;;5.27;;
11037;SDS011;5572;49.540;11.932;2022-10-13T00:31:45;5.93;;;4.33;;
11037;SDS011;5572;49.540;11.932;2022-10-13T00:34:11;5.93;;;4.30;;
11037;SDS011;5572;49.540;11.932;2022-10-13T00:36:38;6.03;;;5.43;;
11037;SDS011;5572;49.540;11.932;2022-10-13T00:39:04;7.83;;;5.23;;
11037;SDS011;5572;49.540;11.932;2022-10-13T00:41:31;9.10;;;5.47;;
11037;SDS011;5572;49.540;11.932;2022-10-13T00:43:58;9.70;;;6.17;;
11037;SDS011;5572;49.540;11.932;2022-10-13T00:46:26;7.63;;;5.10;;
11037;SDS011;5572;49.540;11.932;2022-10-13T00:48:53;11.13;;;7.17;;
11037;SDS011;5572;49.540;11.932;2022-10-13T00:51:21;8.17;;;5.53;;
11037;SDS011;5572;49.540;11.932;2022-10-13T00:53:49;6.83;;;5.33;;
11037;SDS011;5572;49.540;11.932;2022-10-13T00:56:15;9.63;;;5.47;;
11037;SDS011;5572;49.540;11.932;2022-10-13T00:58:43;10.33;;;6.00;;
11037;SDS011;5572;49.540;11.932;2022-10-13T01:01:10;12.53;;;7.13;;
11037;SDS011;5572;49.540;11.932;2022-10-13T01:03:38;14.07;;;6.70;;
11037;SDS011;5572;49.540;11.932;2022-10-13T01:06:05;12.37;;;6.80;;
11037;SDS011;5572;49.540;11.932;2022-10-13T01:08:32;18.83;;;7.43;;
11037;SDS011;5572;49.540;11.932;2022-10-13T01:11:01;14.03;;;6.90;;
11037;SDS011;5572;49.540;11.932;2022-10-13T01:13:33;18.90;;;7.40;;
11037;SDS011;5572;49.540;11.932;2022-10-13T01:16:03;19.90;;;8.07;;
11037;SDS011;5572;49.540;11.932;2022-10-13T01:18:33;16.90;;;7.80;;
11037;SDS011;5572;49.540;11.932;2022-10-13T01:21:09;41.43;;;9.37;;
11037;SDS011;5572;49.540;11.932;2022-10-13T01:23:51;26.37;;;8.10;;
11037;SDS011;5572;49.540;11.932;2022-10-13T01:26:30;16.53;;;6.90;;
11037;SDS011;5572;49.540;11.932;2022-10-13T01:31:43;25.97;;;9.50;;
11037;SDS011;5572;49.540;11.932;2022-10-13T01:34:14;16.73;;;7.10;;
11037;SDS011;5572;49.540;11.932;2022-10-13T01:36:42;13.00;;;7.00;;
11037;SDS011;5572;49.540;11.932;2022-10-13T01:39:15;19.03;;;8.73;;
11037;SDS011;5572;49.540;11.932;2022-10-13T01:41:45;19.20;;;8.63;;
11037;SDS011;5572;49.540;11.932;2022-10-13T01:44:13;23.37;;;9.53;;
11037;SDS011;5572;49.540;11.932;2022-10-13T01:46:43;18.83;;;9.47;;
11037;SDS011;5572;49.540;11.932;2022-10-13T01:49:11;20.63;;;9.37;;
11037;SDS011;5572;49.540;11.932;2022-10-13T01:54:40;17.80;;;9.30;;
11037;SDS011;5572;49.540;11.932;2022-10-13T01:59:48;8.50;;;6.43;;
11037;SDS011;5572;49.540;11.932;2022-10-13T02:02:17;15.27;;;8.63;;
11037;SDS011;5572;49.540;11.932;2022-10-13T02:04:46;13.07;;;8.70;;
11037;SDS011;5572;49.540;11.932;2022-10-13T02:07:17;14.33;;;8.63;;
11037;SDS011;5572;49.540;11.932;2022-10-13T02:09:46;13.80;;;9.23;;
11037;SDS011;5572;49.540;11.932;2022-10-13T02:12:15;15.43;;;8.33;;
11037;SDS011;5572;49.540;11.932;2022-10-13T02:14:43;15.17;;;7.80;;
11037;SDS011;5572;49.540;11.932;2022-10-13T02:17:10;11.90;;;6.70;;
11037;SDS011;5572;49.540;11.932;2022-10-13T02:19:38;13.57;;;8.27;;
11037;SDS011;5572;49.540;11.932;2022-10-13T02:22:05;15.03;;;8.57;;
11037;SDS011;5572;49.540;11.932;2022-10-13T02:24:32;13.93;;;9.00;;
11037;SDS011;5572;49.540;11.932;2022-10-13T02:26:58;15.30;;;8.00;;
11037;SDS011;5572;49.540;11.932;2022-10-13T02:29:25;13.87;;;8.60;;
11037;SDS011;5572;49.540;11.932;2022-10-13T02:31:51;14.53;;;7.93;;
11037;SDS011;5572;49.540;11.932;2022-10-13T02:34:18;14.33;;;8.57;;
11037;SDS011;5572;49.540;11.932;2022-10-13T02:36:46;12.63;;;8.17;;
11037;SDS011;5572;49.540;11.932;2022-10-13T02:39:13;13.83;;;8.17;;
11037;SDS011;5572;49.540;11.932;2022-10-13T02:41:39;11.23;;;6.90;;
11037;SDS011;5572;49.540;11.932;2022-10-13T02:44:06;12.30;;;7.30;;
11037;SDS011;5572;49.540;11.932;2022-10-13T02:46:32;14.33;;;7.70;;
11037;SDS011;5572;49.540;11.932;2022-10-13T02:48:59;13.97;;;7.83;;
11037;SDS011;5572;49.540;11.932;2022-10-13T02:51:25;11.80;;;7.27;;
11037;SDS011;5572;49.540;11.932;2022-10-13T02:53:53;16.50;;;8.93;;
11037;SDS011;5572;49.540;11.932;2022-10-13T02:56:19;20.70;;;10.97;;
11037;SDS011;5572;49.540;11.932;2022-10-13T02:58:46;16.97;;;9.60;;
11037;SDS011;5572;49.540;11.932;2022-10-13T03:01:13;20.67;;;10.57;;
11037;SDS011;5572;49.540;11.932;2022-10-13T03:03:39;14.90;;;9.17;;
11037;SDS011;5572;49.540;11.932;2022-10-13T03:06:06;22.07;;;10.97;;
11037;SDS011;5572;49.540;11.932;2022-10-13T03:08:33;14.23;;;7.83;;
11037;SDS011;5572;49.540;11.932;2022-10-13T03:11:01;18.40;;;10.37;;
11037;SDS011;5572;49.540;11.932;2022-10-13T03:13:27;16.13;;;9.53;;
11037;SDS011;5572;49.540;11.932;2022-10-13T03:15:54;20.13;;;9.53;;
11037;SDS011;5572;49.540;11.932;2022-10-13T03:18:20;28.77;;;13.03;;
11037;SDS011;5572;49.540;11.932;2022-10-13T03:20:53;11.73;;;8.93;;
11037;SDS011;5572;49.540;11.932;2022-10-13T03:23:20;18.20;;;9.80;;
11037;SDS011;5572;49.540;11.932;2022-10-13T03:25:46;24.73;;;11.30;;
11037;SDS011;5572;49.540;11.932;2022-10-13T03:28:14;14.90;;;9.23;;
11037;SDS011;5572;49.540;11.932;2022-10-13T03:30:40;17.60;;;10.03;;
11037;SDS011;5572;49.540;11.932;2022-10-13T03:33:07;14.60;;;9.20;;
11037;SDS011;5572;49.540;11.932;2022-10-13T03:35:33;17.77;;;9.43;;
11037;SDS011;5572;49.540;11.932;2022-10-13T03:38:00;16.83;;;8.30;;
11037;SDS011;5572;49.540;11.932;2022-10-13T03:40:26;19.87;;;8.40;;
11037;SDS011;5572;49.540;11.932;2022-10-13T03:42:52;11.13;;;7.33;;
11037;SDS011;5572;49.540;11.932;2022-10-13T03:45:20;16.00;;;8.60;;
11037;SDS011;5572;49.540;11.932;2022-10-13T03:47:46;17.60;;;8.47;;
11037;SDS011;5572;49.540;11.932;2022-10-13T03:50:13;19.50;;;10.43;;
11037;SDS011;5572;49.540;11.932;2022-10-13T03:52:39;39.27;;;16.23;;
11037;SDS011;5572;49.540;11.932;2022-10-13T03:55:06;28.47;;;14.07;;
11037;SDS011;5572;49.540;11.932;2022-10-13T03:57:32;45.23;;;19.50;;
11037;SDS011;5572;49.540;11.932;2022-10-13T03:59:59;48.13;;;19.27;;
11037;SDS011;5572;49.540;11.932;2022-10-13T04:02:27;28.60;;;14.60;;
11037;SDS011;5572;49.540;11.932;2022-10-13T04:04:53;45.23;;;16.87;;
11037;SDS011;5572;49.540;11.932;2022-10-13T04:07:19;20.50;;;11.33;;
11037;SDS011;5572;49.540;11.932;2022-10-13T04:09:46;26.53;;;11.83;;
11037;SDS011;5572;49.540;11.932;2022-10-13T04:12:12;21.77;;;10.83;;
11037;SDS011;5572;49.540;11.932;2022-10-13T04:14:39;18.30;;;10.73;;
11037;SDS011;5572;49.540;11.932;2022-10-13T04:17:05;25.60;;;10.60;;
11037;SDS011;5572;49.540;11.932;2022-10-13T04:19:33;26.23;;;11.37;;
11037;SDS011;5572;49.540;11.932;2022-10-13T04:21:59;23.33;;;10.50;;
11037;SDS011;5572;49.540;11.932;2022-10-13T04:24:25;32.10;;;12.87;;
11037;SDS011;5572;49.540;11.932;2022-10-13T04:26:52;31.27;;;14.20;;
11037;SDS011;5572;49.540;11.932;2022-10-13T04:29:18;33.50;;;14.83;;
11037;SDS011;5572;49.540;11.932;2022-10-13T04:31:45;33.00;;;14.60;;
11037;SDS011;5572;49.540;11.932;2022-10-13T04:34:11;51.90;;;17.43;;
11037;SDS011;5572;49.540;11.932;2022-10-13T04:36:39;52.67;;;17.77;;
11037;SDS011;5572;49.540;11.932;2022-10-13T04:39:05;45.53;;;19.10;;
11037;SDS011;5572;49.540;11.932;2022-10-13T04:41:31;44.10;;;18.37;;
11037;SDS011;5572;49.540;11.932;2022-10-13T04:43:58;36.43;;;15.63;;
11037;SDS011;5572;49.540;11.932;2022-10-13T04:46:26;35.43;;;17.43;;
11037;SDS011;5572;49.540;11.932;2022-10-13T04:48:53;40.07;;;18.30;;
11037;SDS011;5572;49.540;11.932;2022-10-13T04:51:20;51.13;;;19.67;;
11037;SDS011;5572;49.540;11.932;2022-10-13T04:53:52;44.50;;;18.70;;
11037;SDS011;5572;49.540;11.932;2022-10-13T04:56:18;56.53;;;22.23;;
11037;SDS011;5572;49.540;11.932;2022-10-13T04:58:45;47.93;;;19.40;;
11037;SDS011;5572;49.540;11.932;2022-10-13T05:01:11;65.30;;;24.73;;
11037;SDS011;5572;49.540;11.932;2022-10-13T05:03:38;51.50;;;20.53;;
11037;SDS011;5572;49.540;11.932;2022-10-13T05:06:04;60.20;;;24.20;;
11037;SDS011;5572;49.540;11.932;2022-10-13T05:08:31;53.17;;;24.07;;
11037;SDS011;5572;49.540;11.932;2022-10-13T05:11:00;62.57;;;26.37;;
11037;SDS011;5572;49.540;11.932;2022-10-13T05:13:26;68.53;;;27.10;;
11037;SDS011;5572;49.540;11.932;2022-10-13T05:15:53;49.90;;;21.73;;
11037;SDS011;5572;49.540;11.932;2022-10-13T05:18:19;78.77;;;30.53;;
11037;SDS011;5572;49.540;11.932;2022-10-13T05:20:46;51.10;;;24.17;;
11037;SDS011;5572;49.540;11.932;2022-10-13T05:23:13;46.17;;;22.07;;
11037;SDS011;5572;49.540;11.932;2022-10-13T05:25:39;32.23;;;17.33;;
11037;SDS011;5572;49.540;11.932;2022-10-13T05:28:07;56.53;;;27.70;;
11037;SDS011;5572;49.540;11.932;2022-10-13T05:30:33;43.60;;;21.73;;
11037;SDS011;5572;49.540;11.932;2022-10-13T05:33:00;40.90;;;22.17;;
11037;SDS011;5572;49.540;11.932;2022-10-13T05:35:26;34.73;;;18.33;;
11037;SDS011;5572;49.540;11.932;2022-10-13T05:37:53;42.27;;;22.67;;
11037;SDS011;5572;49.540;11.932;2022-10-13T05:40:19;42.37;;;22.47;;
11037;SDS011;5572;49.540;11.932;2022-10-13T05:42:46;46.40;;;22.70;;
11037;SDS011;5572;49.540;11.932;2022-10-13T05:45:14;43.20;;;21.67;;
11037;SDS011;5572;49.540;11.932;2022-10-13T05:47:41;39.37;;;21.23;;
11037;SDS011;5572;49.540;11.932;2022-10-13T05:50:07;46.57;;;21.67;;
11037;SDS011;5572;49.540;11.932;2022-10-13T05:52:34;38.57;;;21.17;;
11037;SDS011;5572;49.540;11.932;2022-10-13T05:55:02;36.47;;;20.53;;
11037;SDS011;5572;49.540;11.932;2022-10-13T05:57:31;37.80;;;17.53;;
11037;SDS011;5572;49.540;11.932;2022-10-13T05:59:59;51.03;;;24.13;;
11037;SDS011;5572;49.540;11.932;2022-10-13T06:02:30;46.07;;;25.63;;
11037;SDS011;5572;49.540;11.932;2022-10-13T06:04:59;52.10;;;29.47;;
11037;SDS011;5572;49.540;11.932;2022-10-13T06:07:28;54.77;;;29.77;;
11037;SDS011;5572;49.540;11.932;2022-10-13T06:09:54;56.47;;;31.63;;
11037;SDS011;5572;49.540;11.932;2022-10-13T06:12:21;54.10;;;31.13;;
11037;SDS011;5572;49.540;11.932;2022-10-13T06:14:47;71.23;;;38.47;;
11037;SDS011;5572;49.540;11.932;2022-10-13T06:17:14;60.33;;;34.43;;
11037;SDS011;5572;49.540;11.932;2022-10-13T06:19:42;53.20;;;32.33;;
11037;SDS011;5572;49.540;11.932;2022-10-13T06:22:09;54.00;;;30.80;;
11037;SDS011;5572;49.540;11.932;2022-10-13T06:24:35;45.10;;;28.00;;
11037;SDS011;5572;49.540;11.932;2022-10-13T06:27:02;48.53;;;31.53;;
11037;SDS011;5572;49.540;11.932;2022-10-13T06:29:28;49.47;;;31.33;;
11037;SDS011;5572;49.540;11.932;2022-10-13T06:31:56;49.63;;;27.40;;
11037;SDS011;5572;49.540;11.932;2022-10-13T06:34:23;56.87;;;33.33;;
11037;SDS011;5572;49.540;11.932;2022-10-13T06:36:51;48.30;;;28.33;;
11037;SDS011;5572;49.540;11.932;2022-10-13T06:39:17;47.87;;;27.90;;
11037;SDS011;5572;49.540;11.932;2022-10-13T06:41:43;51.50;;;28.20;;
11037;SDS011;5572;49.540;11.932;2022-10-13T06:44:10;32.70;;;22.17;;
11037;SDS011;5572;49.540;11.932;2022-10-13T06:46:36;45.97;;;28.53;;
11037;SDS011;5572;49.540;11.932;2022-10-13T06:49:03;48.70;;;29.23;;
11037;SDS011;5572;49.540;11.932;2022-10-13T06:51:29;44.53;;;27.97;;
11037;SDS011;5572;49.540;11.932;2022-10-13T06:53:57;44.53;;;27.00;;
11037;SDS011;5572;49.540;11.932;2022-10-13T06:56:23;47.83;;;28.33;;
11037;SDS011;5572;49.540;11.932;2022-10-13T06:58:49;32.57;;;21.73;;
11037;SDS011;5572;49.540;11.932;2022-10-13T07:01:16;44.83;;;27.60;;
11037;SDS011;5572;49.540;11.932;2022-10-13T07:03:42;49.87;;;29.20;;
11037;SDS011;5572;49.540;11.932;2022-10-13T07:06:08;46.10;;;26.93;;
11037;SDS011;5572;49.540;11.932;2022-10-13T07:08:35;45.60;;;27.90;;
11037;SDS011;5572;49.540;11.932;2022-10-13T07:11:06;36.43;;;21.53;;
11037;SDS011;5572;49.540;11.932;2022-10-13T07:13:33;46.30;;;27.00;;
11037;SDS011;5572;49.540;11.932;2022-10-13T07:16:01;48.57;;;29.00;;
11037;SDS011;5572;49.540;11.932;2022-10-13T07:18:27;49.03;;;27.13;;
11037;SDS011;5572;49.540;11.932;2022-10-13T07:20:53;40.63;;;25.73;;
11037;SDS011;5572;49.540;11.932;2022-10-13T07:23:21;33.73;;;22.03;;
11037;SDS011;5572;49.540;11.932;2022-10-13T07:25:48;41.67;;;26.07;;
11037;SDS011;5572;49.540;11.932;2022-10-13T07:28:16;43.97;;;25.57;;
11037;SDS011;5572;49.540;11.932;2022-10-13T07:30:42;41.77;;;25.13;;
11037;SDS011;5572;49.540;11.932;2022-10-13T07:33:09;40.80;;;25.53;;
11037;SDS011;5572;49.540;11.932;2022-10-13T07:35:36;41.00;;;24.77;;
11037;SDS011;5572;49.540;11.932;2022-10-13T07:38:03;38.90;;;25.37;;
11037;SDS011;5572;49.540;11.932;2022-10-13T07:40:29;44.87;;;27.87;;
11037;SDS011;5572;49.540;11.932;2022-10-13T07:42:56;44.27;;;27.20;;
11037;SDS011;5572;49.540;11.932;2022-10-13T07:45:23;48.40;;;27.47;;
11037;SDS011;5572;49.540;11.932;2022-10-13T07:47:50;47.97;;;26.40;;
11037;SDS011;5572;49.540;11.932;2022-10-13T07:50:16;43.07;;;27.20;;
11037;SDS011;5572;49.540;11.932;2022-10-13T07:52:43;49.63;;;28.10;;
11037;SDS011;5572;49.540;11.932;2022-10-13T07:55:10;41.17;;;24.70;;
11037;SDS011;5572;49.540;11.932;2022-10-13T07:57:36;44.63;;;26.17;;
11037;SDS011;5572;49.540;11.932;2022-10-13T08:00:03;42.37;;;26.53;;
11037;SDS011;5572;49.540;11.932;2022-10-13T08:02:31;35.70;;;25.53;;
11037;SDS011;5572;49.540;11.932;2022-10-13T08:04:58;40.70;;;23.83;;
11037;SDS011;5572;49.540;11.932;2022-10-13T08:07:25;47.83;;;24.53;;
11037;SDS011;5572;49.540;11.932;2022-10-13T08:09:51;46.83;;;26.73;;
11037;SDS011;5572;49.540;11.932;2022-10-13T08:12:18;45.70;;;27.27;;
11037;SDS011;5572;49.540;11.932;2022-10-13T08:14:44;40.90;;;24.77;;
11037;SDS011;5572;49.540;11.932;2022-10-13T08:17:10;41.13;;;25.67;;
11037;SDS011;5572;49.540;11.932;2022-10-13T08:19:38;35.87;;;22.07;;
11037;SDS011;5572;49.540;11.932;2022-10-13T08:22:04;30.50;;;21.17;;
11037;SDS011;5572;49.540;11.932;2022-10-13T08:24:31;35.90;;;23.20;;
11037;SDS011;5572;49.540;11.932;2022-10-13T08:26:57;38.27;;;24.67;;
11037;SDS011;5572;49.540;11.932;2022-10-13T08:29:24;36.80;;;24.93;;
11037;SDS011;5572;49.540;11.932;2022-10-13T08:31:50;40.53;;;26.17;;
11037;SDS011;5572;49.540;11.932;2022-10-13T08:34:17;39.80;;;24.00;;
11037;SDS011;5572;49.540;11.932;2022-10-13T08:36:45;38.47;;;22.97;;
11037;SDS011;5572;49.540;11.932;2022-10-13T08:39:11;40.83;;;23.87;;
11037;SDS011;5572;49.540;11.932;2022-10-13T08:41:38;41.03;;;27.07;;
11037;SDS011;5572;49.540;11.932;2022-10-13T08:44:09;34.90;;;23.27;;
11037;SDS011;5572;49.540;11.932;2022-10-13T08:46:38;36.83;;;22.77;;
11037;SDS011;5572;49.540;11.932;2022-10-13T08:49:07;42.50;;;26.13;;
11037;SDS011;5572;49.540;11.932;2022-10-13T08:51:33;39.03;;;25.10;;
11037;SDS011;5572;49.540;11.932;2022-10-13T08:54:02;39.93;;;24.50;;
11037;SDS011;5572;49.540;11.932;2022-10-13T08:56:31;33.30;;;22.20;;
11037;SDS011;5572;49.540;11.932;2022-10-13T08:58:58;41.73;;;25.70;;
11037;SDS011;5572;49.540;11.932;2022-10-13T09:01:27;37.47;;;23.87;;
11037;SDS011;5572;49.540;11.932;2022-10-13T09:03:55;37.07;;;21.97;;
11037;SDS011;5572;49.540;11.932;2022-10-13T09:06:22;35.17;;;22.63;;
11037;SDS011;5572;49.540;11.932;2022-10-13T09:08:53;35.77;;;22.83;;
11037;SDS011;5572;49.540;11.932;2022-10-13T09:11:22;40.47;;;24.10;;
11037;SDS011;5572;49.540;11.932;2022-10-13T09:13:52;39.00;;;23.97;;
11037;SDS011;5572;49.540;11.932;2022-10-13T09:16:24;38.20;;;25.63;;
11037;SDS011;5572;49.540;11.932;2022-10-13T09:18:51;40.87;;;26.33;;
11037;SDS011;5572;49.540;11.932;2022-10-13T09:21:18;28.17;;;18.70;;
11037;SDS011;5572;49.540;11.932;2022-10-13T09:23:47;31.60;;;20.13;;
11037;SDS011;5572;49.540;11.932;2022-10-13T09:26:15;34.37;;;20.93;;
11037;SDS011;5572;49.540;11.932;2022-10-13T09:28:48;40.23;;;23.60;;
11037;SDS011;5572;49.540;11.932;2022-10-13T09:31:15;32.30;;;20.40;;
11037;SDS011;5572;49.540;11.932;2022-10-13T09:33:44;34.00;;;21.93;;
11037;SDS011;5572;49.540;11.932;2022-10-13T09:36:11;30.03;;;20.03;;
11037;SDS011;5572;49.540;11.932;2022-10-13T09:38:39;32.67;;;20.57;;
11037;SDS011;5572;49.540;11.932;2022-10-13T09:41:09;28.57;;;19.47;;
11037;SDS011;5572;49.540;11.932;2022-10-13T09:43:36;33.20;;;20.70;;
11037;SDS011;5572;49.540;11.932;2022-10-13T09:46:12;32.90;;;20.50;;
11037;SDS011;5572;49.540;11.932;2022-10-13T09:48:41;32.87;;;19.73;;
11037;SDS011;5572;49.540;11.932;2022-10-13T09:51:25;38.77;;;22.53;;
11037;SDS011;5572;49.540;11.932;2022-10-13T09:53:52;26.03;;;16.87;;
11037;SDS011;5572;49.540;11.932;2022-10-13T09:56:20;27.47;;;16.97;;
11037;SDS011;5572;49.540;11.932;2022-10-13T09:58:50;27.83;;;19.03;;
11037;SDS011;5572;49.540;11.932;2022-10-13T10:01:19;28.93;;;17.60;;
11037;SDS011;5572;49.540;11.932;2022-10-13T10:03:47;36.37;;;19.70;;
11037;SDS011;5572;49.540;11.932;2022-10-13T10:06:14;29.87;;;19.60;;
11037;SDS011;5572;49.540;11.932;2022-10-13T10:08:41;30.53;;;19.13;;
11037;SDS011;5572;49.540;11.932;2022-10-13T10:11:12;28.20;;;17.37;;
11037;SDS011;5572;49.540;11.932;2022-10-13T10:13:38;30.00;;;20.33;;
11037;SDS011;5572;49.540;11.932;2022-10-13T10:16:06;29.43;;;19.60;;
11037;SDS011;5572;49.540;11.932;2022-10-13T10:18:37;33.23;;;19.53;;
11037;SDS011;5572;49.540;11.932;2022-10-13T10:21:07;32.33;;;21.50;;
11037;SDS011;5572;49.540;11.932;2022-10-13T10:23:37;49.97;;;30.93;;
11037;SDS011;5572;49.540;11.932;2022-10-13T10:26:07;34.37;;;20.83;;
11037;SDS011;5572;49.540;11.932;2022-10-13T10:31:24;34.70;;;20.53;;
11037;SDS011;5572;49.540;11.932;2022-10-13T10:33:58;31.40;;;19.70;;
11037;SDS011;5572;49.540;11.932;2022-10-13T10:36:28;33.50;;;19.13;;
11037;SDS011;5572;49.540;11.932;2022-10-13T10:38:56;30.30;;;20.33;;
11037;SDS011;5572;49.540;11.932;2022-10-13T10:41:32;31.63;;;19.20;;
11037;SDS011;5572;49.540;11.932;2022-10-13T10:44:03;28.37;;;18.50;;
11037;SDS011;5572;49.540;11.932;2022-10-13T10:46:33;37.27;;;19.07;;
11037;SDS011;5572;49.540;11.932;2022-10-13T10:49:02;26.70;;;18.37;;
11037;SDS011;5572;49.540;11.932;2022-10-13T10:51:30;30.97;;;19.57;;
11037;SDS011;5572;49.540;11.932;2022-10-13T10:54:01;32.20;;;18.40;;
11037;SDS011;5572;49.540;11.932;2022-10-13T10:56:30;27.97;;;18.87;;
11037;SDS011;5572;49.540;11.932;2022-10-13T10:59:04;30.70;;;18.57;;
11037;SDS011;5572;49.540;11.932;2022-10-13T11:01:33;26.17;;;17.13;;
11037;SDS011;5572;49.540;11.932;2022-10-13T11:04:16;27.80;;;16.63;;
11037;SDS011;5572;49.540;11.932;2022-10-13T11:06:48;27.03;;;17.83;;
11037;SDS011;5572;49.540;11.932;2022-10-13T11:09:17;25.53;;;17.13;;
11037;SDS011;5572;49.540;11.932;2022-10-13T11:12:01;27.30;;;16.47;;
11037;SDS011;5572;49.540;11.932;2022-10-13T11:14:28;28.70;;;16.30;;
11037;SDS011;5572;49.540;11.932;2022-10-13T11:19:44;21.27;;;15.07;;
11037;SDS011;5572;49.540;11.932;2022-10-13T11:22:12;29.43;;;15.47;;
11037;SDS011;5572;49.540;11.932;2022-10-13T11:27:39;34.07;;;18.17;;
11037;SDS011;5572;49.540;11.932;2022-10-13T11:32:47;29.63;;;16.07;;
11037;SDS011;5572;49.540;11.932;2022-10-13T11:35:23;26.50;;;17.13;;
11037;SDS011;5572;49.540;11.932;2022-10-13T11:37:53;26.90;;;16.33;;
11037;SDS011;5572;49.540;11.932;2022-10-13T11:40:22;27.50;;;16.40;;
11037;SDS011;5572;49.540;11.932;2022-10-13T11:45:39;32.00;;;19.13;;
11037;SDS011;5572;49.540;11.932;2022-10-13T11:48:20;31.60;;;18.47;;
11037;SDS011;5572;49.540;11.932;2022-10-13T11:50:57;29.80;;;17.37;;
11037;SDS011;5572;49.540;11.932;2022-10-13T11:53:30;24.17;;;16.20;;
11037;SDS011;5572;49.540;11.932;2022-10-13T11:55:59;28.13;;;17.23;;
11037;SDS011;5572;49.540;11.932;2022-10-13T11:58:27;26.80;;;16.43;;
11037;SDS011;5572;49.540;11.932;2022-10-13T12:00:54;29.20;;;16.27;;
11037;SDS011;5572;49.540;11.932;2022-10-13T12:03:27;29.23;;;16.40;;
11037;SDS011;5572;49.540;11.932;2022-10-13T12:05:57;28.43;;;15.73;;
11037;SDS011;5572;49.540;11.932;2022-10-13T12:08:24;25.50;;;16.00;;
11037;SDS011;5572;49.540;11.932;2022-10-13T12:10:51;25.13;;;14.53;;
11037;SDS011;5572;49.540;11.932;2022-10-13T12:13:22;24.50;;;15.40;;
11037;SDS011;5572;49.540;11.932;2022-10-13T12:15:51;25.93;;;15.60;;
11037;SDS011;5572;49.540;11.932;2022-10-13T12:18:24;24.30;;;16.37;;
11037;SDS011;5572;49.540;11.932;2022-10-13T12:20:52;24.60;;;15.23;;
11037;SDS011;5572;49.540;11.932;2022-10-13T12:23:20;27.73;;;16.30;;
11037;SDS011;5572;49.540;11.932;2022-10-13T12:25:47;25.10;;;15.40;;
11037;SDS011;5572;49.540;11.932;2022-10-13T12:28:20;31.27;;;16.53;;
11037;SDS011;5572;49.540;11.932;2022-10-13T12:30:50;23.23;;;15.70;;
11037;SDS011;5572;49.540;11.932;2022-10-13T12:33:18;27.80;;;16.17;;
11037;SDS011;5572;49.540;11.932;2022-10-13T12:35:45;23.10;;;16.20;;
11037;SDS011;5572;49.540;11.932;2022-10-13T12:38:14;23.37;;;14.30;;
11037;SDS011;5572;49.540;11.932;2022-10-13T12:40:43;25.70;;;15.90;;
11037;SDS011;5572;49.540;11.932;2022-10-13T12:43:10;25.23;;;15.00;;
11037;SDS011;5572;49.540;11.932;2022-10-13T12:45:41;26.37;;;14.07;;
11037;SDS011;5572;49.540;11.932;2022-10-13T12:50:49;23.10;;;14.27;;
11037;SDS011;5572;49.540;11.932;2022-10-13T12:53:16;25.20;;;14.60;;
11037;SDS011;5572;49.540;11.932;2022-10-13T12:55:55;21.93;;;14.40;;
11037;SDS011;5572;49.540;11.932;2022-10-13T12:58:24;22.03;;;14.37;;
11037;SDS011;5572;49.540;11.932;2022-10-13T13:00:59;23.73;;;14.70;;
11037;SDS011;5572;49.540;11.932;2022-10-13T13:03:29;21.53;;;15.20;;
11037;SDS011;5572;49.540;11.932;2022-10-13T13:06:09;24.10;;;15.13;;
11037;SDS011;5572;49.540;11.932;2022-10-13T13:08:36;21.83;;;13.93;;
11037;SDS011;5572;49.540;11.932;2022-10-13T13:11:04;23.03;;;14.10;;
11037;SDS011;5572;49.540;11.932;2022-10-13T13:13:32;27.80;;;16.00;;
11037;SDS011;5572;49.540;11.932;2022-10-13T13:16:11;23.63;;;14.27;;
11037;SDS011;5572;49.540;11.932;2022-10-13T13:18:38;23.17;;;14.87;;
11037;SDS011;5572;49.540;11.932;2022-10-13T13:21:07;18.87;;;13.20;;
11037;SDS011;5572;49.540;11.932;2022-10-13T13:23:33;25.30;;;14.07;;
11037;SDS011;5572;49.540;11.932;2022-10-13T13:26:01;26.23;;;13.30;;
11037;SDS011;5572;49.540;11.932;2022-10-13T13:28:29;26.07;;;13.93;;
11037;SDS011;5572;49.540;11.932;2022-10-13T13:30:56;23.93;;;13.50;;
11037;SDS011;5572;49.540;11.932;2022-10-13T13:33:23;20.77;;;13.33;;
11037;SDS011;5572;49.540;11.932;2022-10-13T13:35:50;22.30;;;14.43;;
11037;SDS011;5572;49.540;11.932;2022-10-13T13:38:16;21.20;;;12.87;;
11037;SDS011;5572;49.540;11.932;2022-10-13T13:40:43;22.43;;;12.60;;
11037;SDS011;5572;49.540;11.932;2022-10-13T13:43:09;21.87;;;13.03;;
11037;SDS011;5572;49.540;11.932;2022-10-13T13:45:37;24.13;;;13.87;;
11037;SDS011;5572;49.540;11.932;2022-10-13T13:48:04;23.37;;;14.80;;
11037;SDS011;5572;49.540;11.932;2022-10-13T13:50:31;22.60;;;14.00;;
11037;SDS011;5572;49.540;11.932;2022-10-13T13:52:57;34.20;;;21.50;;
11037;SDS011;5572;49.540;11.932;2022-10-13T13:55:24;41.97;;;24.90;;
11037;SDS011;5572;49.540;11.932;2022-10-13T13:57:50;16.27;;;11.53;;
11037;SDS011;5572;49.540;11.932;2022-10-13T14:00:17;20.60;;;12.13;;
11037;SDS011;5572;49.540;11.932;2022-10-13T14:02:45;19.37;;;12.23;;
11037;SDS011;5572;49.540;11.932;2022-10-13T14:05:11;18.10;;;12.00;;
11037;SDS011;5572;49.540;11.932;2022-10-13T14:07:37;17.00;;;10.33;;
11037;SDS011;5572;49.540;11.932;2022-10-13T14:10:04;19.73;;;11.07;;
11037;SDS011;5572;49.540;11.932;2022-10-13T14:12:31;14.67;;;10.23;;
11037;SDS011;5572;49.540;11.932;2022-10-13T14:14:58;19.07;;;10.30;;
11037;SDS011;5572;49.540;11.932;2022-10-13T14:17:25;12.77;;;9.63;;
11037;SDS011;5572;49.540;11.932;2022-10-13T14:19:53;20.57;;;9.43;;
11037;SDS011;5572;49.540;11.932;2022-10-13T14:22:20;13.83;;;9.70;;
11037;SDS011;5572;49.540;11.932;2022-10-13T14:24:46;11.40;;;8.13;;
11037;SDS011;5572;49.540;11.932;2022-10-13T14:27:12;14.27;;;8.70;;
11037;SDS011;5572;49.540;11.932;2022-10-13T14:29:39;14.47;;;9.00;;
11037;SDS011;5572;49.540;11.932;2022-10-13T14:32:05;17.23;;;10.57;;
11037;SDS011;5572;49.540;11.932;2022-10-13T14:34:32;15.40;;;9.00;;
11037;SDS011;5572;49.540;11.932;2022-10-13T14:36:59;13.97;;;8.83;;
11037;SDS011;5572;49.540;11.932;2022-10-13T14:39:26;13.47;;;8.53;;
11037;SDS011;5572;49.540;11.932;2022-10-13T14:41:52;15.13;;;9.07;;
11037;SDS011;5572;49.540;11.932;2022-10-13T14:44:19;15.87;;;9.93;;
11037;SDS011;5572;49.540;11.932;2022-10-13T14:46:45;15.23;;;8.53;;
11037;SDS011;5572;49.540;11.932;2022-10-13T14:49:11;11.17;;;7.87;;
11037;SDS011;5572;49.540;11.932;2022-10-13T14:51:38;12.30;;;7.90;;
11037;SDS011;5572;49.540;11.932;2022-10-13T14:54:06;14.23;;;8.10;;
11037;SDS011;5572;49.540;11.932;2022-10-13T14:56:32;15.40;;;8.70;;